sensor_id;sensor_type;location;lat;lon;timestamp;pressure;altitude;pressure_sealevel;temperature;humidity
34297;BME280;20564;42.902;25.336;2022-12-11T00:00:54;95309.28;;;15.13;87.93
34297;BME280;20564;42.902;25.336;2022-12-11T00:03:21;95309.06;;;15.22;87.36
34297;BME280;20564;42.902;25.336;2022-12-11T00:05:48;95313.75;;;15.19;88.26
34297;BME280;20564;42.902;25.336;2022-12-11T00:08:15;95314.16;;;15.16;88.71
34297;BME280;20564;42.902;25.336;2022-12-11T00:10:48;95297.94;;;15.06;89.37
34297;BME280;20564;42.902;25.336;2022-12-11T00:13:15;95291.78;;;15.12;88.71
34297;BME280;20564;42.902;25.336;2022-12-11T00:15:43;95290.13;;;15.18;89.30
34297;BME280;20564;42.902;25.336;2022-12-11T00:18:11;95305.22;;;15.17;89.23
34297;BME280;20564;42.902;25.336;2022-12-11T00:20:38;95283.25;;;15.10;89.59
34297;BME280;20564;42.902;25.336;2022-12-11T00:23:05;95292.97;;;15.16;89.46
34297;BME280;20564;42.902;25.336;2022-12-11T00:25:32;95278.72;;;15.17;89.53
34297;BME280;20564;42.902;25.336;2022-12-11T00:27:59;95285.13;;;15.03;90.65
34297;BME280;20564;42.902;25.336;2022-12-11T00:30:26;95284.09;;;15.04;91.13
34297;BME280;20564;42.902;25.336;2022-12-11T00:32:53;95269.41;;;15.08;90.44
34297;BME280;20564;42.902;25.336;2022-12-11T00:35:20;95279.56;;;15.11;89.76
34297;BME280;20564;42.902;25.336;2022-12-11T00:37:47;95261.50;;;15.27;88.30
34297;BME280;20564;42.902;25.336;2022-12-11T00:40:15;95238.31;;;15.22;88.57
34297;BME280;20564;42.902;25.336;2022-12-11T00:42:42;95272.09;;;15.27;89.01
34297;BME280;20564;42.902;25.336;2022-12-11T00:45:10;95263.53;;;15.25;89.15
34297;BME280;20564;42.902;25.336;2022-12-11T00:47:37;95259.47;;;15.29;88.47
34297;BME280;20564;42.902;25.336;2022-12-11T00:50:04;95275.50;;;15.34;87.94
34297;BME280;20564;42.902;25.336;2022-12-11T00:52:33;95249.25;;;15.32;88.76
34297;BME280;20564;42.902;25.336;2022-12-11T00:55:00;95258.56;;;15.35;88.18
34297;BME280;20564;42.902;25.336;2022-12-11T00:57:27;95251.22;;;15.37;88.28
34297;BME280;20564;42.902;25.336;2022-12-11T00:59:55;95251.03;;;15.32;89.25
34297;BME280;20564;42.902;25.336;2022-12-11T01:02:22;95209.63;;;15.37;88.78
34297;BME280;20564;42.902;25.336;2022-12-11T01:04:49;95186.25;;;15.28;89.67
34297;BME280;20564;42.902;25.336;2022-12-11T01:07:15;95168.50;;;15.28;89.38
34297;BME280;20564;42.902;25.336;2022-12-11T01:09:42;95184.41;;;15.28;89.96
34297;BME280;20564;42.902;25.336;2022-12-11T01:12:28;95185.00;;;15.30;88.40
34297;BME280;20564;42.902;25.336;2022-12-11T01:14:54;95187.59;;;15.37;88.11
34297;BME280;20564;42.902;25.336;2022-12-11T01:17:21;95173.00;;;15.28;88.76
34297;BME280;20564;42.902;25.336;2022-12-11T01:19:48;95159.50;;;15.36;88.43
34297;BME280;20564;42.902;25.336;2022-12-11T01:22:15;95159.75;;;15.28;88.19
34297;BME280;20564;42.902;25.336;2022-12-11T01:24:42;95170.97;;;15.30;87.53
34297;BME280;20564;42.902;25.336;2022-12-11T01:27:09;95171.69;;;15.37;88.14
34297;BME280;20564;42.902;25.336;2022-12-11T01:29:36;95159.75;;;15.28;87.77
34297;BME280;20564;42.902;25.336;2022-12-11T01:32:03;95157.47;;;15.31;87.35
34297;BME280;20564;42.902;25.336;2022-12-11T01:34:30;95138.41;;;15.41;87.02
34297;BME280;20564;42.902;25.336;2022-12-11T01:36:57;95134.59;;;15.37;86.98
34297;BME280;20564;42.902;25.336;2022-12-11T01:39:24;95127.69;;;15.36;87.71
34297;BME280;20564;42.902;25.336;2022-12-11T01:41:55;95120.44;;;15.25;87.29
34297;BME280;20564;42.902;25.336;2022-12-11T01:46:50;95118.09;;;15.35;86.83
34297;BME280;20564;42.902;25.336;2022-12-11T01:49:16;95121.72;;;15.40;86.24
34297;BME280;20564;42.902;25.336;2022-12-11T01:51:48;95111.16;;;15.52;85.67
34297;BME280;20564;42.902;25.336;2022-12-11T01:54:18;95102.16;;;15.53;86.15
34297;BME280;20564;42.902;25.336;2022-12-11T01:56:47;95099.69;;;15.58;85.10
34297;BME280;20564;42.902;25.336;2022-12-11T01:59:16;95099.69;;;15.58;84.93
34297;BME280;20564;42.902;25.336;2022-12-11T02:01:44;95076.34;;;15.67;85.31
34297;BME280;20564;42.902;25.336;2022-12-11T02:04:13;95100.84;;;15.62;84.44
34297;BME280;20564;42.902;25.336;2022-12-11T02:06:42;95102.06;;;15.66;85.82
34297;BME280;20564;42.902;25.336;2022-12-11T02:09:16;95093.66;;;15.70;84.52
34297;BME280;20564;42.902;25.336;2022-12-11T02:14:32;95096.00;;;15.78;84.34
34297;BME280;20564;42.902;25.336;2022-12-11T02:17:03;95089.06;;;15.77;85.02
34297;BME280;20564;42.902;25.336;2022-12-11T02:22:07;95080.44;;;15.63;86.49
34297;BME280;20564;42.902;25.336;2022-12-11T02:24:49;95073.09;;;15.65;86.33
34297;BME280;20564;42.902;25.336;2022-12-11T02:32:24;95067.97;;;15.82;85.32
34297;BME280;20564;42.902;25.336;2022-12-11T02:34:56;95089.06;;;15.77;86.34
34297;BME280;20564;42.902;25.336;2022-12-11T02:37:26;95057.81;;;15.60;87.15
34297;BME280;20564;42.902;25.336;2022-12-11T02:39:56;95022.91;;;15.63;87.28
34297;BME280;20564;42.902;25.336;2022-12-11T02:42:26;95047.81;;;15.62;87.60
34297;BME280;20564;42.902;25.336;2022-12-11T02:44:54;95049.59;;;15.50;87.71
34297;BME280;20564;42.902;25.336;2022-12-11T02:47:22;95055.94;;;15.67;86.49
34297;BME280;20564;42.902;25.336;2022-12-11T02:49:50;95072.56;;;15.75;86.20
34297;BME280;20564;42.902;25.336;2022-12-11T02:52:19;95084.78;;;15.76;86.80
34297;BME280;20564;42.902;25.336;2022-12-11T02:54:47;95082.72;;;15.78;86.89
34297;BME280;20564;42.902;25.336;2022-12-11T02:57:23;95068.41;;;15.79;87.51
34297;BME280;20564;42.902;25.336;2022-12-11T02:59:51;95075.66;;;15.72;87.49
34297;BME280;20564;42.902;25.336;2022-12-11T03:02:19;95070.34;;;15.72;88.18
34297;BME280;20564;42.902;25.336;2022-12-11T03:04:46;95070.16;;;15.73;88.24
34297;BME280;20564;42.902;25.336;2022-12-11T03:07:17;95082.81;;;15.71;88.74
34297;BME280;20564;42.902;25.336;2022-12-11T03:09:46;95074.50;;;15.67;88.82
34297;BME280;20564;42.902;25.336;2022-12-11T03:12:15;95075.53;;;15.66;89.55
34297;BME280;20564;42.902;25.336;2022-12-11T03:14:42;95083.63;;;15.72;89.50
34297;BME280;20564;42.902;25.336;2022-12-11T03:17:11;95082.00;;;15.71;88.68
34297;BME280;20564;42.902;25.336;2022-12-11T03:20:03;95092.72;;;15.57;90.56
34297;BME280;20564;42.902;25.336;2022-12-11T03:22:36;95086.25;;;15.53;91.10
34297;BME280;20564;42.902;25.336;2022-12-11T03:25:19;95085.00;;;15.56;91.12
34297;BME280;20564;42.902;25.336;2022-12-11T03:27:49;95094.38;;;15.58;90.37
34297;BME280;20564;42.902;25.336;2022-12-11T03:30:21;95095.13;;;15.65;90.83
34297;BME280;20564;42.902;25.336;2022-12-11T03:35:18;95117.44;;;15.76;90.02
34297;BME280;20564;42.902;25.336;2022-12-11T03:37:47;95114.13;;;15.81;90.25
34297;BME280;20564;42.902;25.336;2022-12-11T03:40:15;95104.75;;;15.78;89.60
34297;BME280;20564;42.902;25.336;2022-12-11T03:42:44;95120.66;;;15.78;89.51
34297;BME280;20564;42.902;25.336;2022-12-11T03:45:12;95099.44;;;15.78;89.43
34297;BME280;20564;42.902;25.336;2022-12-11T03:47:40;95108.97;;;15.67;90.52
34297;BME280;20564;42.902;25.336;2022-12-11T03:50:08;95111.78;;;15.54;91.52
34297;BME280;20564;42.902;25.336;2022-12-11T03:52:36;95113.00;;;15.52;91.72
34297;BME280;20564;42.902;25.336;2022-12-11T03:55:11;95113.47;;;15.67;90.98
34297;BME280;20564;42.902;25.336;2022-12-11T03:57:39;95117.34;;;15.64;91.19
34297;BME280;20564;42.902;25.336;2022-12-11T04:00:07;95117.09;;;15.73;90.54
34297;BME280;20564;42.902;25.336;2022-12-11T04:02:34;95100.50;;;15.59;91.81
34297;BME280;20564;42.902;25.336;2022-12-11T04:05:01;95097.97;;;15.64;91.73
34297;BME280;20564;42.902;25.336;2022-12-11T04:07:28;95093.06;;;15.67;91.34
34297;BME280;20564;42.902;25.336;2022-12-11T04:09:56;95101.41;;;15.64;91.32
34297;BME280;20564;42.902;25.336;2022-12-11T04:12:23;95107.63;;;15.58;91.96
34297;BME280;20564;42.902;25.336;2022-12-11T04:14:50;95121.25;;;15.62;91.59
34297;BME280;20564;42.902;25.336;2022-12-11T04:17:33;95123.63;;;15.70;91.92
34297;BME280;20564;42.902;25.336;2022-12-11T04:20:20;95094.22;;;15.72;91.62
34297;BME280;20564;42.902;25.336;2022-12-11T04:23:08;95108.66;;;15.76;91.65
34297;BME280;20564;42.902;25.336;2022-12-11T04:26:08;95109.69;;;15.75;91.78
34297;BME280;20564;42.902;25.336;2022-12-11T04:28:35;95096.75;;;15.66;92.39
34297;BME280;20564;42.902;25.336;2022-12-11T04:31:03;95133.00;;;15.73;91.69
34297;BME280;20564;42.902;25.336;2022-12-11T04:33:30;95114.28;;;15.67;92.30
34297;BME280;20564;42.902;25.336;2022-12-11T04:35:57;95103.34;;;15.57;93.21
34297;BME280;20564;42.902;25.336;2022-12-11T04:38:24;95083.63;;;15.72;92.16
34297;BME280;20564;42.902;25.336;2022-12-11T04:41:02;95106.31;;;15.67;92.01
34297;BME280;20564;42.902;25.336;2022-12-11T04:43:30;95118.38;;;15.63;92.51
34297;BME280;20564;42.902;25.336;2022-12-11T04:46:14;95102.84;;;15.67;92.05
34297;BME280;20564;42.902;25.336;2022-12-11T04:48:41;95111.19;;;15.71;92.22
34297;BME280;20564;42.902;25.336;2022-12-11T04:51:09;95106.00;;;15.57;92.23
34297;BME280;20564;42.902;25.336;2022-12-11T04:53:36;95103.22;;;15.71;90.81
34297;BME280;20564;42.902;25.336;2022-12-11T04:56:04;95116.25;;;15.72;91.63
34297;BME280;20564;42.902;25.336;2022-12-11T04:58:31;95135.34;;;15.81;90.99
34297;BME280;20564;42.902;25.336;2022-12-11T05:00:58;95116.16;;;15.79;90.75
34297;BME280;20564;42.902;25.336;2022-12-11T05:03:25;95139.91;;;15.74;91.56
34297;BME280;20564;42.902;25.336;2022-12-11T05:05:52;95140.19;;;15.84;90.12
34297;BME280;20564;42.902;25.336;2022-12-11T05:08:20;95135.78;;;15.78;90.95
34297;BME280;20564;42.902;25.336;2022-12-11T05:13:23;95120.66;;;15.78;90.21
34297;BME280;20564;42.902;25.336;2022-12-11T05:15:49;95122.28;;;15.79;90.89
34297;BME280;20564;42.902;25.336;2022-12-11T05:18:17;95120.81;;;15.83;89.87
34297;BME280;20564;42.902;25.336;2022-12-11T05:20:43;95129.00;;;15.82;90.30
34297;BME280;20564;42.902;25.336;2022-12-11T05:23:10;95122.28;;;15.79;90.13
34297;BME280;20564;42.902;25.336;2022-12-11T05:25:37;95134.16;;;15.77;89.88
34297;BME280;20564;42.902;25.336;2022-12-11T05:28:04;95126.94;;;15.84;89.39
34297;BME280;20564;42.902;25.336;2022-12-11T05:30:31;95142.84;;;15.84;89.09
34297;BME280;20564;42.902;25.336;2022-12-11T05:32:58;95141.94;;;15.90;87.90
34297;BME280;20564;42.902;25.336;2022-12-11T05:35:25;95144.38;;;15.91;86.90
34297;BME280;20564;42.902;25.336;2022-12-11T05:37:52;95161.34;;;15.90;86.97
34297;BME280;20564;42.902;25.336;2022-12-11T05:40:18;95154.31;;;15.96;86.38
34297;BME280;20564;42.902;25.336;2022-12-11T05:42:45;95156.38;;;15.94;86.72
34297;BME280;20564;42.902;25.336;2022-12-11T05:45:12;95159.19;;;15.99;86.13
34297;BME280;20564;42.902;25.336;2022-12-11T05:47:39;95139.13;;;16.03;85.69
34297;BME280;20564;42.902;25.336;2022-12-11T05:50:07;95135.66;;;16.03;84.97
34297;BME280;20564;42.902;25.336;2022-12-11T05:52:33;95157.69;;;16.03;85.30
34297;BME280;20564;42.902;25.336;2022-12-11T05:55:01;95156.28;;;16.01;85.51
34297;BME280;20564;42.902;25.336;2022-12-11T05:57:28;95143.63;;;16.03;84.62
34297;BME280;20564;42.902;25.336;2022-12-11T05:59:55;95152.28;;;15.98;84.50
34297;BME280;20564;42.902;25.336;2022-12-11T06:02:24;95152.41;;;16.03;84.08
34297;BME280;20564;42.902;25.336;2022-12-11T06:04:51;95167.63;;;16.08;83.57
34297;BME280;20564;42.902;25.336;2022-12-11T06:07:18;95168.44;;;16.08;84.31
34297;BME280;20564;42.902;25.336;2022-12-11T06:09:45;95165.22;;;16.06;83.39
34297;BME280;20564;42.902;25.336;2022-12-11T06:12:12;95165.78;;;16.08;83.98
34297;BME280;20564;42.902;25.336;2022-12-11T06:14:39;95174.13;;;16.12;82.27
34297;BME280;20564;42.902;25.336;2022-12-11T06:17:06;95180.59;;;16.16;82.07
34297;BME280;20564;42.902;25.336;2022-12-11T06:19:33;95184.66;;;16.19;81.91
34297;BME280;20564;42.902;25.336;2022-12-11T06:22:02;95167.13;;;16.18;81.91
34297;BME280;20564;42.902;25.336;2022-12-11T06:24:29;95167.25;;;16.23;81.18
34297;BME280;20564;42.902;25.336;2022-12-11T06:26:56;95170.69;;;16.23;80.59
34297;BME280;20564;42.902;25.336;2022-12-11T06:29:23;95167.41;;;16.28;80.33
34297;BME280;20564;42.902;25.336;2022-12-11T06:31:50;95171.41;;;16.30;79.60
34297;BME280;20564;42.902;25.336;2022-12-11T06:34:17;95176.78;;;16.42;78.88
34297;BME280;20564;42.902;25.336;2022-12-11T06:36:44;95177.50;;;16.49;78.77
34297;BME280;20564;42.902;25.336;2022-12-11T06:39:11;95185.59;;;16.54;79.47
34297;BME280;20564;42.902;25.336;2022-12-11T06:41:38;95190.22;;;16.59;79.90
34297;BME280;20564;42.902;25.336;2022-12-11T06:44:04;95198.88;;;16.54;80.12
34297;BME280;20564;42.902;25.336;2022-12-11T06:46:31;95191.19;;;16.64;77.38
34297;BME280;20564;42.902;25.336;2022-12-11T06:48:58;95183.38;;;16.51;77.75
34297;BME280;20564;42.902;25.336;2022-12-11T06:51:25;95177.91;;;16.64;76.51
34297;BME280;20564;42.902;25.336;2022-12-11T06:53:53;95190.53;;;16.81;74.50
34297;BME280;20564;42.902;25.336;2022-12-11T06:56:20;95199.31;;;16.81;74.25
34297;BME280;20564;42.902;25.336;2022-12-11T06:58:48;95205.22;;;16.83;74.53
34297;BME280;20564;42.902;25.336;2022-12-11T07:01:19;95205.34;;;16.88;73.07
34297;BME280;20564;42.902;25.336;2022-12-11T07:03:47;95206.41;;;16.99;72.59
34297;BME280;20564;42.902;25.336;2022-12-11T07:06:14;95218.19;;;17.03;73.98
34297;BME280;20564;42.902;25.336;2022-12-11T07:08:41;95214.63;;;17.09;73.65
34297;BME280;20564;42.902;25.336;2022-12-11T07:11:10;95217.28;;;17.09;73.19
34297;BME280;20564;42.902;25.336;2022-12-11T07:13:38;95200.88;;;17.13;72.48
34297;BME280;20564;42.902;25.336;2022-12-11T07:16:05;95199.97;;;17.19;72.31
34297;BME280;20564;42.902;25.336;2022-12-11T07:18:39;95187.03;;;17.34;71.07
34297;BME280;20564;42.902;25.336;2022-12-11T07:21:07;95195.09;;;17.39;70.50
34297;BME280;20564;42.902;25.336;2022-12-11T07:23:35;95208.63;;;17.49;70.59
34297;BME280;20564;42.902;25.336;2022-12-11T07:26:05;95218.47;;;17.60;70.03
34297;BME280;20564;42.902;25.336;2022-12-11T07:28:33;95222.50;;;17.63;70.59
34297;BME280;20564;42.902;25.336;2022-12-11T07:31:06;95210.13;;;17.69;70.45
34297;BME280;20564;42.902;25.336;2022-12-11T07:33:33;95226.34;;;17.79;70.99
34297;BME280;20564;42.902;25.336;2022-12-11T07:36:01;95224.25;;;17.81;70.90
34297;BME280;20564;42.902;25.336;2022-12-11T07:38:28;95229.22;;;17.89;70.02
34297;BME280;20564;42.902;25.336;2022-12-11T07:40:58;95233.03;;;17.93;69.21
34297;BME280;20564;42.902;25.336;2022-12-11T07:43:25;95229.31;;;17.94;68.90
34297;BME280;20564;42.902;25.336;2022-12-11T07:45:52;95228.75;;;17.92;68.22
34297;BME280;20564;42.902;25.336;2022-12-11T07:48:19;95221.91;;;17.96;67.37
34297;BME280;20564;42.902;25.336;2022-12-11T07:50:46;95224.00;;;17.94;67.38
34297;BME280;20564;42.902;25.336;2022-12-11T07:53:13;95235.22;;;17.96;66.99
34297;BME280;20564;42.902;25.336;2022-12-11T07:55:40;95224.69;;;18.01;66.77
34297;BME280;20564;42.902;25.336;2022-12-11T07:58:07;95227.47;;;18.06;67.01
34297;BME280;20564;42.902;25.336;2022-12-11T08:00:34;95231.81;;;18.13;66.66
34297;BME280;20564;42.902;25.336;2022-12-11T08:03:00;95232.88;;;18.12;65.45
34297;BME280;20564;42.902;25.336;2022-12-11T08:05:27;95245.72;;;18.15;66.44
34297;BME280;20564;42.902;25.336;2022-12-11T08:07:54;95241.22;;;18.15;65.19
34297;BME280;20564;42.902;25.336;2022-12-11T08:10:21;95232.97;;;18.17;64.63
34297;BME280;20564;42.902;25.336;2022-12-11T08:12:48;95236.69;;;18.16;64.42
34297;BME280;20564;42.902;25.336;2022-12-11T08:15:15;95227.66;;;18.17;64.19
34297;BME280;20564;42.902;25.336;2022-12-11T08:17:42;95222.81;;;18.14;64.02
34297;BME280;20564;42.902;25.336;2022-12-11T08:20:09;95212.25;;;18.19;65.48
34297;BME280;20564;42.902;25.336;2022-12-11T08:22:36;95198.47;;;18.22;64.56
34297;BME280;20564;42.902;25.336;2022-12-11T08:25:03;95192.47;;;18.15;63.54
34297;BME280;20564;42.902;25.336;2022-12-11T08:27:30;95195.69;;;18.17;63.89
34297;BME280;20564;42.902;25.336;2022-12-11T08:29:57;95186.44;;;18.19;61.44
34297;BME280;20564;42.902;25.336;2022-12-11T08:32:24;95186.97;;;18.33;61.85
34297;BME280;20564;42.902;25.336;2022-12-11T08:34:51;95195.44;;;18.30;61.59
34297;BME280;20564;42.902;25.336;2022-12-11T08:37:18;95199.34;;;18.39;61.26
34297;BME280;20564;42.902;25.336;2022-12-11T08:39:45;95202.81;;;18.40;60.01
34297;BME280;20564;42.902;25.336;2022-12-11T08:42:12;95205.94;;;18.37;60.56
34297;BME280;20564;42.902;25.336;2022-12-11T08:44:39;95203.16;;;18.43;59.95
34297;BME280;20564;42.902;25.336;2022-12-11T08:47:06;95195.38;;;18.42;59.85
34297;BME280;20564;42.902;25.336;2022-12-11T08:49:35;95201.50;;;18.42;60.27
34297;BME280;20564;42.902;25.336;2022-12-11T08:52:03;95187.25;;;18.48;60.64
34297;BME280;20564;42.902;25.336;2022-12-11T08:54:30;95188.03;;;18.49;61.00
34297;BME280;20564;42.902;25.336;2022-12-11T08:56:57;95185.00;;;18.57;59.73
34297;BME280;20564;42.902;25.336;2022-12-11T08:59:24;95184.75;;;18.59;60.25
34297;BME280;20564;42.902;25.336;2022-12-11T09:01:51;95185.56;;;18.59;60.22
34297;BME280;20564;42.902;25.336;2022-12-11T09:04:19;95183.53;;;18.49;60.81
34297;BME280;20564;42.902;25.336;2022-12-11T09:06:46;95183.78;;;18.48;60.71
34297;BME280;20564;42.902;25.336;2022-12-11T09:09:14;95182.97;;;18.47;60.15
34297;BME280;20564;42.902;25.336;2022-12-11T09:11:40;95186.84;;;18.56;59.77
34297;BME280;20564;42.902;25.336;2022-12-11T09:14:08;95183.72;;;18.60;60.68
34297;BME280;20564;42.902;25.336;2022-12-11T09:16:35;95199.84;;;18.53;59.66
34297;BME280;20564;42.902;25.336;2022-12-11T09:19:06;95199.38;;;18.56;58.95
34297;BME280;20564;42.902;25.336;2022-12-11T09:21:33;95206.63;;;18.61;59.30
34297;BME280;20564;42.902;25.336;2022-12-11T09:24:00;95215.22;;;18.63;60.46
34297;BME280;20564;42.902;25.336;2022-12-11T09:26:28;95224.59;;;18.65;60.43
34297;BME280;20564;42.902;25.336;2022-12-11T09:28:55;95235.53;;;18.52;61.85
34297;BME280;20564;42.902;25.336;2022-12-11T09:31:23;95249.44;;;18.42;62.52
34297;BME280;20564;42.902;25.336;2022-12-11T09:33:52;95249.94;;;18.39;62.83
34297;BME280;20564;42.902;25.336;2022-12-11T09:36:19;95238.03;;;18.30;62.86
34297;BME280;20564;42.902;25.336;2022-12-11T09:38:46;95222.53;;;18.27;62.81
34297;BME280;20564;42.902;25.336;2022-12-11T09:41:22;95228.03;;;18.08;63.49
34297;BME280;20564;42.902;25.336;2022-12-11T09:46:28;95232.53;;;18.08;63.73
34297;BME280;20564;42.902;25.336;2022-12-11T09:48:59;95232.44;;;18.03;63.36
34297;BME280;20564;42.902;25.336;2022-12-11T09:53:54;95224.59;;;17.96;63.80
34297;BME280;20564;42.902;25.336;2022-12-11T09:56:35;95208.63;;;17.96;64.17
34297;BME280;20564;42.902;25.336;2022-12-11T10:04:19;95195.22;;;18.20;62.63
34297;BME280;20564;42.902;25.336;2022-12-11T10:09:39;95198.94;;;18.19;62.94
34297;BME280;20564;42.902;25.336;2022-12-11T10:17:12;95177.63;;;18.19;61.84
34297;BME280;20564;42.902;25.336;2022-12-11T10:19:41;95174.88;;;18.14;61.80
34297;BME280;20564;42.902;25.336;2022-12-11T10:22:13;95167.94;;;18.13;62.17
34297;BME280;20564;42.902;25.336;2022-12-11T10:24:44;95164.31;;;18.19;61.71
34297;BME280;20564;42.902;25.336;2022-12-11T10:27:34;95163.13;;;18.26;61.29
34297;BME280;20564;42.902;25.336;2022-12-11T10:30:11;95161.66;;;18.19;60.76
34297;BME280;20564;42.902;25.336;2022-12-11T10:35:30;95157.00;;;18.26;61.50
34297;BME280;20564;42.902;25.336;2022-12-11T10:40:58;95147.50;;;18.30;60.64
34297;BME280;20564;42.902;25.336;2022-12-11T10:43:42;95147.50;;;18.30;61.09
34297;BME280;20564;42.902;25.336;2022-12-11T10:46:17;95142.56;;;18.22;61.43
34297;BME280;20564;42.902;25.336;2022-12-11T10:48:51;95153.41;;;18.32;60.12
34297;BME280;20564;42.902;25.336;2022-12-11T10:54:05;95148.16;;;18.37;59.66
34297;BME280;20564;42.902;25.336;2022-12-11T10:56:34;95152.69;;;18.53;59.60
34297;BME280;20564;42.902;25.336;2022-12-11T10:59:02;95164.13;;;18.37;60.13
34297;BME280;20564;42.902;25.336;2022-12-11T11:01:30;95156.72;;;18.39;60.51
34297;BME280;20564;42.902;25.336;2022-12-11T11:03:59;95151.22;;;18.46;61.08
34297;BME280;20564;42.902;25.336;2022-12-11T11:06:28;95166.06;;;18.42;61.37
34297;BME280;20564;42.902;25.336;2022-12-11T11:08:56;95172.19;;;18.42;61.28
34297;BME280;20564;42.902;25.336;2022-12-11T11:11:26;95181.25;;;18.41;63.29
34297;BME280;20564;42.902;25.336;2022-12-11T11:14:13;95208.25;;;18.04;65.29
34297;BME280;20564;42.902;25.336;2022-12-11T11:16:46;95215.47;;;17.45;67.13
34297;BME280;20564;42.902;25.336;2022-12-11T11:19:34;95217.16;;;17.04;69.82
34297;BME280;20564;42.902;25.336;2022-12-11T11:22:14;95220.66;;;16.45;71.81
34297;BME280;20564;42.902;25.336;2022-12-11T11:24:54;95224.88;;;16.34;72.33
34297;BME280;20564;42.902;25.336;2022-12-11T11:30:05;95240.84;;;16.15;73.15
34297;BME280;20564;42.902;25.336;2022-12-11T11:32:36;95237.75;;;16.00;74.37
34297;BME280;20564;42.902;25.336;2022-12-11T11:35:21;95232.44;;;16.00;75.03
34297;BME280;20564;42.902;25.336;2022-12-11T11:43:47;95255.22;;;15.71;76.55
34297;BME280;20564;42.902;25.336;2022-12-11T11:53:47;95274.59;;;15.22;79.24
34297;BME280;20564;42.902;25.336;2022-12-11T11:56:22;95276.66;;;15.19;79.13
34297;BME280;20564;42.902;25.336;2022-12-11T12:01:18;95281.78;;;14.83;80.51
34297;BME280;20564;42.902;25.336;2022-12-11T12:03:45;95278.63;;;14.67;81.83
34297;BME280;20564;42.902;25.336;2022-12-11T12:06:26;95280.31;;;14.55;82.29
34297;BME280;20564;42.902;25.336;2022-12-11T12:09:11;95280.34;;;14.48;82.63
34297;BME280;20564;42.902;25.336;2022-12-11T12:12:08;95289.50;;;14.46;83.41
34297;BME280;20564;42.902;25.336;2022-12-11T12:14:31;95285.66;;;14.42;82.67
34297;BME280;20564;42.902;25.336;2022-12-11T12:22:38;95290.13;;;14.41;82.84
34297;BME280;20564;42.902;25.336;2022-12-11T12:27:49;95291.13;;;14.47;81.36
34297;BME280;20564;42.902;25.336;2022-12-11T12:30:19;95298.66;;;14.43;81.60
34297;BME280;20564;42.902;25.336;2022-12-11T12:35:28;95303.03;;;14.24;82.42
34297;BME280;20564;42.902;25.336;2022-12-11T12:38:10;95307.94;;;14.14;82.48
34297;BME280;20564;42.902;25.336;2022-12-11T12:45:58;95302.09;;;13.92;81.83
34297;BME280;20564;42.902;25.336;2022-12-11T12:48:29;95311.06;;;13.78;81.74
34297;BME280;20564;42.902;25.336;2022-12-11T12:50:56;95316.00;;;13.61;82.77
34297;BME280;20564;42.902;25.336;2022-12-11T12:53:27;95317.19;;;13.45;83.76
34297;BME280;20564;42.902;25.336;2022-12-11T12:55:56;95313.56;;;13.40;83.26
34297;BME280;20564;42.902;25.336;2022-12-11T12:58:24;95309.91;;;13.27;85.01
34297;BME280;20564;42.902;25.336;2022-12-11T13:00:51;95313.09;;;13.23;85.21
34297;BME280;20564;42.902;25.336;2022-12-11T13:03:19;95319.63;;;13.20;84.52
34297;BME280;20564;42.902;25.336;2022-12-11T13:05:57;95320.25;;;13.09;83.54
34297;BME280;20564;42.902;25.336;2022-12-11T13:08:29;95317.97;;;12.93;84.07
34297;BME280;20564;42.902;25.336;2022-12-11T13:11:02;95332.97;;;12.86;84.74
34297;BME280;20564;42.902;25.336;2022-12-11T13:13:32;95327.28;;;12.69;82.95
34297;BME280;20564;42.902;25.336;2022-12-11T13:16:34;95322.34;;;12.59;86.54
34297;BME280;20564;42.902;25.336;2022-12-11T13:18:53;95321.13;;;12.55;89.15
34297;BME280;20564;42.902;25.336;2022-12-11T13:21:33;95339.53;;;12.42;89.38
34297;BME280;20564;42.902;25.336;2022-12-11T13:24:24;95339.91;;;12.32;92.16
34297;BME280;20564;42.902;25.336;2022-12-11T13:26:51;95353.22;;;12.17;92.03
34297;BME280;20564;42.902;25.336;2022-12-11T13:31:59;95371.44;;;11.77;94.12
34297;BME280;20564;42.902;25.336;2022-12-11T13:34:28;95372.19;;;11.71;95.27
34297;BME280;20564;42.902;25.336;2022-12-11T13:36:57;95349.47;;;11.70;96.30
34297;BME280;20564;42.902;25.336;2022-12-11T13:39:26;95346.75;;;11.57;95.02
34297;BME280;20564;42.902;25.336;2022-12-11T13:42:28;95374.41;;;11.46;97.91
34297;BME280;20564;42.902;25.336;2022-12-11T13:44:46;95412.41;;;11.37;99.20
34297;BME280;20564;42.902;25.336;2022-12-11T13:47:14;95418.00;;;11.06;99.91
34297;BME280;20564;42.902;25.336;2022-12-11T13:49:43;95367.66;;;10.94;100.00
34297;BME280;20564;42.902;25.336;2022-12-11T13:52:19;95349.78;;;10.68;100.00
34297;BME280;20564;42.902;25.336;2022-12-11T13:54:50;95364.53;;;10.48;100.00
34297;BME280;20564;42.902;25.336;2022-12-11T13:57:22;95398.47;;;10.43;100.00
34297;BME280;20564;42.902;25.336;2022-12-11T13:59:52;95429.84;;;10.29;100.00
34297;BME280;20564;42.902;25.336;2022-12-11T14:05:03;95370.44;;;10.20;100.00
34297;BME280;20564;42.902;25.336;2022-12-11T14:07:40;95410.13;;;10.10;100.00
34297;BME280;20564;42.902;25.336;2022-12-11T14:10:21;95417.47;;;10.15;100.00
34297;BME280;20564;42.902;25.336;2022-12-11T14:15:16;95413.75;;;10.24;100.00
34297;BME280;20564;42.902;25.336;2022-12-11T14:17:43;95418.06;;;10.25;100.00
34297;BME280;20564;42.902;25.336;2022-12-11T14:20:18;95427.84;;;10.31;100.00
34297;BME280;20564;42.902;25.336;2022-12-11T14:22:46;95435.75;;;10.31;100.00
34297;BME280;20564;42.902;25.336;2022-12-11T14:25:17;95437.97;;;10.34;100.00
34297;BME280;20564;42.902;25.336;2022-12-11T14:27:46;95429.13;;;10.35;100.00
34297;BME280;20564;42.902;25.336;2022-12-11T14:30:21;95422.94;;;10.43;100.00